sensor_id;sensor_type;location;lat;lon;timestamp;P1;durP1;ratioP1;P2;durP2;ratioP2
7773;SDS011;3931;42.260;23.116;2023-04-21T00:00:19;14.43;;;10.80;;
7773;SDS011;3931;42.260;23.116;2023-04-21T00:02:45;17.43;;;10.20;;
7773;SDS011;3931;42.260;23.116;2023-04-21T00:05:12;15.20;;;9.60;;
7773;SDS011;3931;42.260;23.116;2023-04-21T00:07:38;12.87;;;9.50;;
7773;SDS011;3931;42.260;23.116;2023-04-21T00:10:05;14.20;;;10.00;;
7773;SDS011;3931;42.260;23.116;2023-04-21T00:12:31;13.10;;;9.23;;
7773;SDS011;3931;42.260;23.116;2023-04-21T00:14:57;10.90;;;9.37;;
7773;SDS011;3931;42.260;23.116;2023-04-21T00:17:23;12.77;;;9.40;;
7773;SDS011;3931;42.260;23.116;2023-04-21T00:19:48;12.60;;;9.10;;
7773;SDS011;3931;42.260;23.116;2023-04-21T00:22:14;14.07;;;8.97;;
7773;SDS011;3931;42.260;23.116;2023-04-21T00:24:41;11.77;;;8.43;;
7773;SDS011;3931;42.260;23.116;2023-04-21T00:27:07;18.10;;;9.00;;
7773;SDS011;3931;42.260;23.116;2023-04-21T00:29:33;13.40;;;8.63;;
7773;SDS011;3931;42.260;23.116;2023-04-21T00:31:58;12.50;;;8.93;;
7773;SDS011;3931;42.260;23.116;2023-04-21T00:34:26;16.63;;;8.83;;
7773;SDS011;3931;42.260;23.116;2023-04-21T00:36:51;13.80;;;10.07;;
7773;SDS011;3931;42.260;23.116;2023-04-21T00:39:17;13.17;;;9.00;;
7773;SDS011;3931;42.260;23.116;2023-04-21T00:41:43;13.53;;;9.73;;
7773;SDS011;3931;42.260;23.116;2023-04-21T00:44:09;12.53;;;9.53;;
7773;SDS011;3931;42.260;23.116;2023-04-21T00:46:35;15.70;;;10.23;;
7773;SDS011;3931;42.260;23.116;2023-04-21T00:49:03;13.97;;;10.00;;
7773;SDS011;3931;42.260;23.116;2023-04-21T00:51:29;14.53;;;10.87;;
7773;SDS011;3931;42.260;23.116;2023-04-21T00:53:57;13.17;;;10.40;;
7773;SDS011;3931;42.260;23.116;2023-04-21T00:56:23;12.53;;;10.73;;
7773;SDS011;3931;42.260;23.116;2023-04-21T00:58:50;14.43;;;10.90;;
7773;SDS011;3931;42.260;23.116;2023-04-21T01:01:17;15.23;;;11.13;;
7773;SDS011;3931;42.260;23.116;2023-04-21T01:03:43;15.07;;;11.57;;
7773;SDS011;3931;42.260;23.116;2023-04-21T01:06:09;13.30;;;10.83;;
7773;SDS011;3931;42.260;23.116;2023-04-21T01:08:34;21.33;;;12.47;;
7773;SDS011;3931;42.260;23.116;2023-04-21T01:11:07;16.53;;;10.10;;
7773;SDS011;3931;42.260;23.116;2023-04-21T01:13:33;14.60;;;11.13;;
7773;SDS011;3931;42.260;23.116;2023-04-21T01:15:59;15.70;;;11.03;;
7773;SDS011;3931;42.260;23.116;2023-04-21T01:18:25;14.33;;;10.67;;
7773;SDS011;3931;42.260;23.116;2023-04-21T01:20:51;18.10;;;11.60;;
7773;SDS011;3931;42.260;23.116;2023-04-21T01:23:17;16.80;;;11.43;;
7773;SDS011;3931;42.260;23.116;2023-04-21T01:25:45;13.43;;;10.67;;
7773;SDS011;3931;42.260;23.116;2023-04-21T01:28:11;16.30;;;11.00;;
7773;SDS011;3931;42.260;23.116;2023-04-21T01:30:37;16.93;;;11.20;;
7773;SDS011;3931;42.260;23.116;2023-04-21T01:33:03;13.37;;;10.13;;
7773;SDS011;3931;42.260;23.116;2023-04-21T01:35:28;13.70;;;9.33;;
7773;SDS011;3931;42.260;23.116;2023-04-21T01:37:54;10.60;;;9.00;;
7773;SDS011;3931;42.260;23.116;2023-04-21T01:40:21;13.17;;;9.63;;
7773;SDS011;3931;42.260;23.116;2023-04-21T01:42:46;14.10;;;9.80;;
7773;SDS011;3931;42.260;23.116;2023-04-21T01:45:12;12.60;;;10.50;;
7773;SDS011;3931;42.260;23.116;2023-04-21T01:47:38;15.17;;;10.73;;
7773;SDS011;3931;42.260;23.116;2023-04-21T01:50:04;14.70;;;10.80;;
7773;SDS011;3931;42.260;23.116;2023-04-21T01:52:30;15.40;;;10.30;;
7773;SDS011;3931;42.260;23.116;2023-04-21T01:54:56;13.50;;;10.77;;
7773;SDS011;3931;42.260;23.116;2023-04-21T01:57:22;15.10;;;9.67;;
7773;SDS011;3931;42.260;23.116;2023-04-21T01:59:48;11.83;;;9.53;;
7773;SDS011;3931;42.260;23.116;2023-04-21T02:02:14;12.63;;;10.03;;
7773;SDS011;3931;42.260;23.116;2023-04-21T02:04:39;13.80;;;10.00;;
7773;SDS011;3931;42.260;23.116;2023-04-21T02:07:05;11.80;;;8.90;;
7773;SDS011;3931;42.260;23.116;2023-04-21T02:09:31;12.10;;;8.97;;
7773;SDS011;3931;42.260;23.116;2023-04-21T02:11:56;12.93;;;9.37;;
7773;SDS011;3931;42.260;23.116;2023-04-21T02:14:23;13.90;;;9.00;;
7773;SDS011;3931;42.260;23.116;2023-04-21T02:16:49;13.20;;;9.00;;
7773;SDS011;3931;42.260;23.116;2023-04-21T02:19:15;10.57;;;7.87;;
7773;SDS011;3931;42.260;23.116;2023-04-21T02:21:40;11.63;;;8.90;;
7773;SDS011;3931;42.260;23.116;2023-04-21T02:24:06;13.23;;;8.70;;
7773;SDS011;3931;42.260;23.116;2023-04-21T02:26:32;10.10;;;8.20;;
7773;SDS011;3931;42.260;23.116;2023-04-21T02:28:58;14.43;;;9.40;;
7773;SDS011;3931;42.260;23.116;2023-04-21T02:31:24;15.20;;;9.00;;
7773;SDS011;3931;42.260;23.116;2023-04-21T02:33:50;12.97;;;8.73;;
7773;SDS011;3931;42.260;23.116;2023-04-21T02:36:16;11.10;;;8.37;;
7773;SDS011;3931;42.260;23.116;2023-04-21T02:38:41;11.80;;;8.73;;
7773;SDS011;3931;42.260;23.116;2023-04-21T02:41:07;19.33;;;9.87;;
7773;SDS011;3931;42.260;23.116;2023-04-21T02:43:33;12.77;;;9.20;;
7773;SDS011;3931;42.260;23.116;2023-04-21T02:45:58;15.03;;;9.13;;
7773;SDS011;3931;42.260;23.116;2023-04-21T02:48:25;13.70;;;9.50;;
7773;SDS011;3931;42.260;23.116;2023-04-21T02:50:51;16.10;;;9.87;;
7773;SDS011;3931;42.260;23.116;2023-04-21T02:53:17;20.00;;;10.27;;
7773;SDS011;3931;42.260;23.116;2023-04-21T02:55:43;16.60;;;9.17;;
7773;SDS011;3931;42.260;23.116;2023-04-21T02:58:08;14.70;;;10.03;;
7773;SDS011;3931;42.260;23.116;2023-04-21T03:00:34;11.27;;;9.07;;
7773;SDS011;3931;42.260;23.116;2023-04-21T03:03:00;14.73;;;10.50;;
7773;SDS011;3931;42.260;23.116;2023-04-21T03:05:26;15.50;;;10.23;;
7773;SDS011;3931;42.260;23.116;2023-04-21T03:07:52;14.80;;;10.20;;
7773;SDS011;3931;42.260;23.116;2023-04-21T03:10:18;18.63;;;10.37;;
7773;SDS011;3931;42.260;23.116;2023-04-21T03:12:44;14.93;;;11.07;;
7773;SDS011;3931;42.260;23.116;2023-04-21T03:15:09;17.10;;;9.80;;
7773;SDS011;3931;42.260;23.116;2023-04-21T03:17:36;13.77;;;9.50;;
7773;SDS011;3931;42.260;23.116;2023-04-21T03:20:02;15.93;;;9.10;;
7773;SDS011;3931;42.260;23.116;2023-04-21T03:22:31;17.93;;;9.00;;
7773;SDS011;3931;42.260;23.116;2023-04-21T03:24:57;15.80;;;9.23;;
7773;SDS011;3931;42.260;23.116;2023-04-21T03:27:22;13.73;;;8.77;;
7773;SDS011;3931;42.260;23.116;2023-04-21T03:29:48;11.53;;;8.90;;
7773;SDS011;3931;42.260;23.116;2023-04-21T03:32:14;11.90;;;9.80;;
7773;SDS011;3931;42.260;23.116;2023-04-21T03:34:40;13.60;;;9.63;;
7773;SDS011;3931;42.260;23.116;2023-04-21T03:37:06;13.67;;;9.80;;
7773;SDS011;3931;42.260;23.116;2023-04-21T03:39:32;15.53;;;10.60;;
7773;SDS011;3931;42.260;23.116;2023-04-21T03:41:58;19.10;;;9.60;;
7773;SDS011;3931;42.260;23.116;2023-04-21T03:44:24;12.80;;;9.40;;
7773;SDS011;3931;42.260;23.116;2023-04-21T03:46:51;18.67;;;10.20;;
7773;SDS011;3931;42.260;23.116;2023-04-21T03:49:16;15.20;;;9.93;;
7773;SDS011;3931;42.260;23.116;2023-04-21T03:51:42;18.60;;;10.77;;
7773;SDS011;3931;42.260;23.116;2023-04-21T03:54:08;17.40;;;10.63;;
7773;SDS011;3931;42.260;23.116;2023-04-21T03:56:34;14.50;;;9.43;;
7773;SDS011;3931;42.260;23.116;2023-04-21T03:59:00;26.03;;;10.20;;
7773;SDS011;3931;42.260;23.116;2023-04-21T04:01:26;17.90;;;10.30;;
7773;SDS011;3931;42.260;23.116;2023-04-21T04:03:51;19.00;;;10.57;;
7773;SDS011;3931;42.260;23.116;2023-04-21T04:06:17;19.20;;;10.43;;
7773;SDS011;3931;42.260;23.116;2023-04-21T04:08:43;18.40;;;9.87;;
7773;SDS011;3931;42.260;23.116;2023-04-21T04:11:09;16.30;;;10.20;;
7773;SDS011;3931;42.260;23.116;2023-04-21T04:13:35;19.40;;;11.27;;
7773;SDS011;3931;42.260;23.116;2023-04-21T04:16:01;19.07;;;12.30;;
7773;SDS011;3931;42.260;23.116;2023-04-21T04:18:27;17.50;;;13.07;;
7773;SDS011;3931;42.260;23.116;2023-04-21T04:20:52;27.53;;;11.77;;
7773;SDS011;3931;42.260;23.116;2023-04-21T04:23:18;22.77;;;11.43;;
7773;SDS011;3931;42.260;23.116;2023-04-21T04:25:44;40.50;;;13.43;;
7773;SDS011;3931;42.260;23.116;2023-04-21T04:28:11;23.03;;;14.47;;
7773;SDS011;3931;42.260;23.116;2023-04-21T04:30:38;36.57;;;15.00;;
7773;SDS011;3931;42.260;23.116;2023-04-21T04:33:04;18.87;;;13.93;;
7773;SDS011;3931;42.260;23.116;2023-04-21T04:35:29;27.97;;;15.00;;
7773;SDS011;3931;42.260;23.116;2023-04-21T04:37:55;15.83;;;12.50;;
7773;SDS011;3931;42.260;23.116;2023-04-21T04:40:22;25.63;;;13.17;;
7773;SDS011;3931;42.260;23.116;2023-04-21T04:42:47;30.50;;;12.60;;
7773;SDS011;3931;42.260;23.116;2023-04-21T04:45:13;19.63;;;11.97;;
7773;SDS011;3931;42.260;23.116;2023-04-21T04:47:41;27.73;;;11.40;;
7773;SDS011;3931;42.260;23.116;2023-04-21T04:50:07;25.30;;;13.13;;
7773;SDS011;3931;42.260;23.116;2023-04-21T04:52:33;20.20;;;12.30;;
7773;SDS011;3931;42.260;23.116;2023-04-21T04:54:59;19.23;;;10.43;;
7773;SDS011;3931;42.260;23.116;2023-04-21T04:57:24;16.00;;;10.10;;
7773;SDS011;3931;42.260;23.116;2023-04-21T04:59:53;24.13;;;9.83;;
7773;SDS011;3931;42.260;23.116;2023-04-21T05:02:18;24.67;;;10.50;;
7773;SDS011;3931;42.260;23.116;2023-04-21T05:04:47;16.60;;;9.13;;
7773;SDS011;3931;42.260;23.116;2023-04-21T05:07:12;12.80;;;9.50;;
7773;SDS011;3931;42.260;23.116;2023-04-21T05:09:41;14.90;;;9.03;;
7773;SDS011;3931;42.260;23.116;2023-04-21T05:12:07;17.43;;;9.27;;
7773;SDS011;3931;42.260;23.116;2023-04-21T05:14:32;15.27;;;9.27;;
7773;SDS011;3931;42.260;23.116;2023-04-21T05:16:58;14.13;;;9.23;;
7773;SDS011;3931;42.260;23.116;2023-04-21T05:19:24;13.77;;;8.47;;
7773;SDS011;3931;42.260;23.116;2023-04-21T05:21:51;10.80;;;7.90;;
7773;SDS011;3931;42.260;23.116;2023-04-21T05:24:17;14.83;;;8.00;;
7773;SDS011;3931;42.260;23.116;2023-04-21T05:26:47;17.93;;;9.13;;
7773;SDS011;3931;42.260;23.116;2023-04-21T05:29:13;29.63;;;9.63;;
7773;SDS011;3931;42.260;23.116;2023-04-21T05:31:38;29.47;;;9.63;;
7773;SDS011;3931;42.260;23.116;2023-04-21T05:34:04;29.93;;;9.60;;
7773;SDS011;3931;42.260;23.116;2023-04-21T05:36:30;18.23;;;9.67;;
7773;SDS011;3931;42.260;23.116;2023-04-21T05:38:57;17.03;;;9.87;;
7773;SDS011;3931;42.260;23.116;2023-04-21T05:41:23;18.13;;;10.30;;
7773;SDS011;3931;42.260;23.116;2023-04-21T05:43:48;21.27;;;11.13;;
7773;SDS011;3931;42.260;23.116;2023-04-21T05:46:14;18.10;;;10.90;;
7773;SDS011;3931;42.260;23.116;2023-04-21T05:48:40;36.30;;;10.80;;
7773;SDS011;3931;42.260;23.116;2023-04-21T05:51:08;16.77;;;10.00;;
7773;SDS011;3931;42.260;23.116;2023-04-21T05:53:35;17.83;;;10.00;;
7773;SDS011;3931;42.260;23.116;2023-04-21T05:56:01;34.23;;;10.37;;
7773;SDS011;3931;42.260;23.116;2023-04-21T05:58:27;21.53;;;10.33;;
7773;SDS011;3931;42.260;23.116;2023-04-21T06:00:52;25.83;;;14.30;;
7773;SDS011;3931;42.260;23.116;2023-04-21T06:03:18;20.47;;;11.60;;
7773;SDS011;3931;42.260;23.116;2023-04-21T06:05:44;26.33;;;10.70;;
7773;SDS011;3931;42.260;23.116;2023-04-21T06:08:11;22.63;;;11.77;;
7773;SDS011;3931;42.260;23.116;2023-04-21T06:10:37;23.80;;;12.80;;
7773;SDS011;3931;42.260;23.116;2023-04-21T06:13:03;17.07;;;11.60;;
7773;SDS011;3931;42.260;23.116;2023-04-21T06:15:29;17.73;;;10.70;;
7773;SDS011;3931;42.260;23.116;2023-04-21T06:17:54;13.77;;;9.83;;
7773;SDS011;3931;42.260;23.116;2023-04-21T06:20:20;48.73;;;12.10;;
7773;SDS011;3931;42.260;23.116;2023-04-21T06:22:46;24.33;;;10.17;;
7773;SDS011;3931;42.260;23.116;2023-04-21T06:25:12;16.07;;;9.67;;
7773;SDS011;3931;42.260;23.116;2023-04-21T06:27:37;22.00;;;10.80;;
7773;SDS011;3931;42.260;23.116;2023-04-21T06:30:05;36.97;;;10.90;;
7773;SDS011;3931;42.260;23.116;2023-04-21T06:32:30;26.23;;;9.07;;
7773;SDS011;3931;42.260;23.116;2023-04-21T06:34:56;18.43;;;9.60;;
7773;SDS011;3931;42.260;23.116;2023-04-21T06:37:22;18.70;;;9.50;;
7773;SDS011;3931;42.260;23.116;2023-04-21T06:39:48;11.03;;;9.13;;
7773;SDS011;3931;42.260;23.116;2023-04-21T06:42:13;26.63;;;9.13;;
7773;SDS011;3931;42.260;23.116;2023-04-21T06:44:39;13.60;;;8.60;;
7773;SDS011;3931;42.260;23.116;2023-04-21T06:47:06;22.27;;;11.43;;
7773;SDS011;3931;42.260;23.116;2023-04-21T06:49:31;16.43;;;9.40;;
7773;SDS011;3931;42.260;23.116;2023-04-21T06:51:58;16.83;;;9.03;;
7773;SDS011;3931;42.260;23.116;2023-04-21T06:54:24;21.97;;;10.10;;
7773;SDS011;3931;42.260;23.116;2023-04-21T06:56:49;17.47;;;9.27;;
7773;SDS011;3931;42.260;23.116;2023-04-21T06:59:15;22.33;;;10.47;;
7773;SDS011;3931;42.260;23.116;2023-04-21T07:01:41;18.07;;;8.80;;
7773;SDS011;3931;42.260;23.116;2023-04-21T07:04:07;20.23;;;8.80;;
7773;SDS011;3931;42.260;23.116;2023-04-21T07:06:33;32.70;;;9.83;;
7773;SDS011;3931;42.260;23.116;2023-04-21T07:08:59;15.27;;;9.60;;
7773;SDS011;3931;42.260;23.116;2023-04-21T07:11:25;22.90;;;11.57;;
7773;SDS011;3931;42.260;23.116;2023-04-21T07:13:52;15.03;;;10.40;;
7773;SDS011;3931;42.260;23.116;2023-04-21T07:16:18;18.80;;;11.93;;
7773;SDS011;3931;42.260;23.116;2023-04-21T07:18:44;13.37;;;9.93;;
7773;SDS011;3931;42.260;23.116;2023-04-21T07:21:10;26.30;;;11.00;;
7773;SDS011;3931;42.260;23.116;2023-04-21T07:23:36;17.53;;;10.13;;
7773;SDS011;3931;42.260;23.116;2023-04-21T07:26:01;17.83;;;9.90;;
7773;SDS011;3931;42.260;23.116;2023-04-21T07:28:27;14.73;;;8.97;;
7773;SDS011;3931;42.260;23.116;2023-04-21T07:30:53;20.80;;;10.37;;
7773;SDS011;3931;42.260;23.116;2023-04-21T07:33:19;16.73;;;9.30;;
7773;SDS011;3931;42.260;23.116;2023-04-21T07:35:44;23.40;;;9.17;;
7773;SDS011;3931;42.260;23.116;2023-04-21T07:38:11;36.43;;;11.47;;
7773;SDS011;3931;42.260;23.116;2023-04-21T07:40:37;13.77;;;7.30;;
7773;SDS011;3931;42.260;23.116;2023-04-21T07:43:02;12.93;;;8.00;;
7773;SDS011;3931;42.260;23.116;2023-04-21T07:45:28;22.13;;;8.80;;
7773;SDS011;3931;42.260;23.116;2023-04-21T07:47:54;12.10;;;7.23;;
7773;SDS011;3931;42.260;23.116;2023-04-21T07:50:20;12.43;;;7.07;;
7773;SDS011;3931;42.260;23.116;2023-04-21T07:52:45;9.50;;;6.27;;
7773;SDS011;3931;42.260;23.116;2023-04-21T07:55:12;9.80;;;5.83;;
7773;SDS011;3931;42.260;23.116;2023-04-21T07:57:38;11.87;;;6.50;;
7773;SDS011;3931;42.260;23.116;2023-04-21T08:00:04;10.60;;;5.90;;
7773;SDS011;3931;42.260;23.116;2023-04-21T08:02:30;15.10;;;6.40;;
7773;SDS011;3931;42.260;23.116;2023-04-21T08:04:56;13.00;;;7.27;;
7773;SDS011;3931;42.260;23.116;2023-04-21T08:07:22;16.87;;;6.00;;
7773;SDS011;3931;42.260;23.116;2023-04-21T08:09:48;11.60;;;5.90;;
7773;SDS011;3931;42.260;23.116;2023-04-21T08:12:14;13.87;;;7.10;;
7773;SDS011;3931;42.260;23.116;2023-04-21T08:14:40;13.00;;;7.90;;
7773;SDS011;3931;42.260;23.116;2023-04-21T08:17:06;11.73;;;7.00;;
7773;SDS011;3931;42.260;23.116;2023-04-21T08:19:31;9.43;;;6.50;;
7773;SDS011;3931;42.260;23.116;2023-04-21T08:21:57;16.23;;;6.20;;
7773;SDS011;3931;42.260;23.116;2023-04-21T08:24:23;10.83;;;6.70;;
7773;SDS011;3931;42.260;23.116;2023-04-21T08:26:49;14.87;;;6.77;;
7773;SDS011;3931;42.260;23.116;2023-04-21T08:29:15;17.27;;;6.50;;
7773;SDS011;3931;42.260;23.116;2023-04-21T08:31:41;9.67;;;6.53;;
7773;SDS011;3931;42.260;23.116;2023-04-21T08:34:07;8.77;;;5.93;;
7773;SDS011;3931;42.260;23.116;2023-04-21T08:36:32;12.40;;;6.27;;
7773;SDS011;3931;42.260;23.116;2023-04-21T08:38:58;9.57;;;6.43;;
7773;SDS011;3931;42.260;23.116;2023-04-21T08:41:24;8.80;;;6.00;;
7773;SDS011;3931;42.260;23.116;2023-04-21T08:43:50;13.00;;;7.33;;
7773;SDS011;3931;42.260;23.116;2023-04-21T08:46:17;7.50;;;6.30;;
7773;SDS011;3931;42.260;23.116;2023-04-21T08:48:43;9.70;;;5.90;;
7773;SDS011;3931;42.260;23.116;2023-04-21T08:51:10;8.90;;;6.20;;
7773;SDS011;3931;42.260;23.116;2023-04-21T08:53:36;11.10;;;5.80;;
7773;SDS011;3931;42.260;23.116;2023-04-21T08:56:04;6.93;;;5.47;;
7773;SDS011;3931;42.260;23.116;2023-04-21T08:58:30;8.97;;;5.20;;
7773;SDS011;3931;42.260;23.116;2023-04-21T09:00:55;10.07;;;5.33;;
7773;SDS011;3931;42.260;23.116;2023-04-21T09:03:23;9.50;;;4.50;;
7773;SDS011;3931;42.260;23.116;2023-04-21T09:05:55;9.83;;;5.00;;
7773;SDS011;3931;42.260;23.116;2023-04-21T09:08:21;7.80;;;5.30;;
7773;SDS011;3931;42.260;23.116;2023-04-21T09:10:47;7.60;;;6.00;;
7773;SDS011;3931;42.260;23.116;2023-04-21T09:13:13;6.17;;;4.87;;
7773;SDS011;3931;42.260;23.116;2023-04-21T09:15:39;6.13;;;5.20;;
7773;SDS011;3931;42.260;23.116;2023-04-21T09:18:09;54.10;;;6.70;;
7773;SDS011;3931;42.260;23.116;2023-04-21T09:20:36;7.57;;;5.73;;
7773;SDS011;3931;42.260;23.116;2023-04-21T09:23:03;16.63;;;4.80;;
7773;SDS011;3931;42.260;23.116;2023-04-21T09:25:29;7.77;;;5.43;;
7773;SDS011;3931;42.260;23.116;2023-04-21T09:27:56;10.60;;;4.43;;
7773;SDS011;3931;42.260;23.116;2023-04-21T09:30:22;25.07;;;5.87;;
7773;SDS011;3931;42.260;23.116;2023-04-21T09:32:48;7.20;;;4.30;;
7773;SDS011;3931;42.260;23.116;2023-04-21T09:35:13;18.33;;;5.17;;
7773;SDS011;3931;42.260;23.116;2023-04-21T09:37:42;9.17;;;4.33;;
7773;SDS011;3931;42.260;23.116;2023-04-21T09:40:10;24.73;;;5.20;;
7773;SDS011;3931;42.260;23.116;2023-04-21T09:42:37;29.03;;;4.97;;
7773;SDS011;3931;42.260;23.116;2023-04-21T09:45:03;5.73;;;4.20;;
7773;SDS011;3931;42.260;23.116;2023-04-21T09:47:29;7.80;;;4.60;;
7773;SDS011;3931;42.260;23.116;2023-04-21T09:49:55;16.87;;;4.80;;
7773;SDS011;3931;42.260;23.116;2023-04-21T09:52:22;13.00;;;4.97;;
7773;SDS011;3931;42.260;23.116;2023-04-21T09:54:50;13.47;;;5.10;;
7773;SDS011;3931;42.260;23.116;2023-04-21T09:57:18;9.73;;;4.33;;
7773;SDS011;3931;42.260;23.116;2023-04-21T09:59:45;5.97;;;4.10;;
7773;SDS011;3931;42.260;23.116;2023-04-21T10:02:11;7.83;;;4.20;;
7773;SDS011;3931;42.260;23.116;2023-04-21T10:04:37;6.03;;;3.93;;
7773;SDS011;3931;42.260;23.116;2023-04-21T10:07:05;8.03;;;4.90;;
7773;SDS011;3931;42.260;23.116;2023-04-21T10:09:32;6.37;;;3.80;;
7773;SDS011;3931;42.260;23.116;2023-04-21T10:12:00;9.63;;;4.23;;
7773;SDS011;3931;42.260;23.116;2023-04-21T10:14:27;10.30;;;4.10;;
7773;SDS011;3931;42.260;23.116;2023-04-21T10:16:55;5.43;;;3.87;;
7773;SDS011;3931;42.260;23.116;2023-04-21T10:19:22;4.87;;;3.50;;
7773;SDS011;3931;42.260;23.116;2023-04-21T10:21:48;164.07;;;8.90;;
7773;SDS011;3931;42.260;23.116;2023-04-21T10:24:14;10.17;;;4.27;;
7773;SDS011;3931;42.260;23.116;2023-04-21T10:26:40;3.50;;;3.20;;
7773;SDS011;3931;42.260;23.116;2023-04-21T10:29:06;23.93;;;4.50;;
7773;SDS011;3931;42.260;23.116;2023-04-21T10:31:33;9.63;;;3.63;;
7773;SDS011;3931;42.260;23.116;2023-04-21T10:34:16;5.67;;;3.37;;
7773;SDS011;3931;42.260;23.116;2023-04-21T10:36:43;9.93;;;3.50;;
7773;SDS011;3931;42.260;23.116;2023-04-21T10:39:11;5.67;;;3.30;;
7773;SDS011;3931;42.260;23.116;2023-04-21T10:41:49;5.50;;;4.67;;
7773;SDS011;3931;42.260;23.116;2023-04-21T10:44:16;15.60;;;3.70;;
7773;SDS011;3931;42.260;23.116;2023-04-21T10:46:44;17.03;;;4.80;;
7773;SDS011;3931;42.260;23.116;2023-04-21T10:49:10;19.13;;;3.93;;
7773;SDS011;3931;42.260;23.116;2023-04-21T10:54:21;22.07;;;5.60;;
7773;SDS011;3931;42.260;23.116;2023-04-21T10:56:47;15.67;;;4.13;;
7773;SDS011;3931;42.260;23.116;2023-04-21T10:59:14;8.43;;;4.50;;
7773;SDS011;3931;42.260;23.116;2023-04-21T11:01:41;12.33;;;5.00;;
7773;SDS011;3931;42.260;23.116;2023-04-21T11:04:11;8.20;;;3.70;;
7773;SDS011;3931;42.260;23.116;2023-04-21T11:06:37;20.37;;;5.10;;
7773;SDS011;3931;42.260;23.116;2023-04-21T11:09:03;14.50;;;5.60;;
7773;SDS011;3931;42.260;23.116;2023-04-21T11:11:29;18.70;;;6.07;;
7773;SDS011;3931;42.260;23.116;2023-04-21T11:13:55;16.93;;;6.20;;
7773;SDS011;3931;42.260;23.116;2023-04-21T11:16:24;34.23;;;8.83;;
7773;SDS011;3931;42.260;23.116;2023-04-21T11:18:50;23.23;;;6.93;;
7773;SDS011;3931;42.260;23.116;2023-04-21T11:21:16;32.03;;;8.37;;
7773;SDS011;3931;42.260;23.116;2023-04-21T11:23:49;16.43;;;7.63;;
7773;SDS011;3931;42.260;23.116;2023-04-21T11:26:15;26.43;;;7.50;;
7773;SDS011;3931;42.260;23.116;2023-04-21T11:28:41;30.03;;;9.53;;
7773;SDS011;3931;42.260;23.116;2023-04-21T11:31:07;26.27;;;7.67;;
7773;SDS011;3931;42.260;23.116;2023-04-21T11:33:34;22.80;;;8.30;;
7773;SDS011;3931;42.260;23.116;2023-04-21T11:36:02;26.83;;;7.23;;
7773;SDS011;3931;42.260;23.116;2023-04-21T11:38:35;20.60;;;7.80;;
7773;SDS011;3931;42.260;23.116;2023-04-21T11:41:00;21.80;;;6.37;;
7773;SDS011;3931;42.260;23.116;2023-04-21T11:43:26;18.63;;;9.33;;
7773;SDS011;3931;42.260;23.116;2023-04-21T11:45:52;20.97;;;7.40;;
7773;SDS011;3931;42.260;23.116;2023-04-21T11:48:18;20.93;;;5.10;;
7773;SDS011;3931;42.260;23.116;2023-04-21T11:50:46;14.93;;;4.93;;
7773;SDS011;3931;42.260;23.116;2023-04-21T11:53:13;11.07;;;4.73;;
7773;SDS011;3931;42.260;23.116;2023-04-21T11:55:40;9.90;;;4.73;;
7773;SDS011;3931;42.260;23.116;2023-04-21T11:58:06;9.07;;;5.40;;
7773;SDS011;3931;42.260;23.116;2023-04-21T12:00:32;7.93;;;4.70;;
7773;SDS011;3931;42.260;23.116;2023-04-21T12:02:58;12.50;;;6.83;;
7773;SDS011;3931;42.260;23.116;2023-04-21T12:05:23;10.07;;;4.40;;
7773;SDS011;3931;42.260;23.116;2023-04-21T12:07:49;7.70;;;4.80;;
7773;SDS011;3931;42.260;23.116;2023-04-21T12:10:17;8.50;;;4.40;;
7773;SDS011;3931;42.260;23.116;2023-04-21T12:12:43;9.50;;;5.33;;
7773;SDS011;3931;42.260;23.116;2023-04-21T12:15:10;10.40;;;3.90;;
7773;SDS011;3931;42.260;23.116;2023-04-21T12:17:36;17.83;;;5.70;;
7773;SDS011;3931;42.260;23.116;2023-04-21T12:20:03;21.27;;;6.43;;
7773;SDS011;3931;42.260;23.116;2023-04-21T12:22:30;8.73;;;5.30;;
7773;SDS011;3931;42.260;23.116;2023-04-21T12:24:55;7.53;;;3.97;;
7773;SDS011;3931;42.260;23.116;2023-04-21T12:27:22;21.77;;;4.57;;
7773;SDS011;3931;42.260;23.116;2023-04-21T12:29:48;31.27;;;9.20;;
7773;SDS011;3931;42.260;23.116;2023-04-21T12:32:13;9.60;;;5.10;;
7773;SDS011;3931;42.260;23.116;2023-04-21T12:34:39;19.03;;;5.10;;
7773;SDS011;3931;42.260;23.116;2023-04-21T12:37:05;20.27;;;4.37;;
7773;SDS011;3931;42.260;23.116;2023-04-21T12:39:32;13.80;;;4.50;;
7773;SDS011;3931;42.260;23.116;2023-04-21T12:41:57;13.03;;;4.30;;
7773;SDS011;3931;42.260;23.116;2023-04-21T12:44:24;7.00;;;3.50;;
7773;SDS011;3931;42.260;23.116;2023-04-21T12:46:50;16.67;;;5.03;;
7773;SDS011;3931;42.260;23.116;2023-04-21T12:49:16;23.17;;;5.47;;
7773;SDS011;3931;42.260;23.116;2023-04-21T12:51:42;14.13;;;6.37;;
7773;SDS011;3931;42.260;23.116;2023-04-21T12:54:08;10.73;;;4.40;;
7773;SDS011;3931;42.260;23.116;2023-04-21T12:56:34;30.57;;;5.20;;
7773;SDS011;3931;42.260;23.116;2023-04-21T12:59:00;18.20;;;6.40;;
7773;SDS011;3931;42.260;23.116;2023-04-21T13:01:27;8.73;;;5.23;;
7773;SDS011;3931;42.260;23.116;2023-04-21T13:03:53;26.80;;;6.10;;
7773;SDS011;3931;42.260;23.116;2023-04-21T13:06:19;12.53;;;5.60;;
7773;SDS011;3931;42.260;23.116;2023-04-21T13:08:45;16.27;;;5.37;;
7773;SDS011;3931;42.260;23.116;2023-04-21T13:11:10;22.10;;;9.77;;
7773;SDS011;3931;42.260;23.116;2023-04-21T13:13:36;16.57;;;6.93;;
7773;SDS011;3931;42.260;23.116;2023-04-21T13:16:03;36.57;;;5.40;;
7773;SDS011;3931;42.260;23.116;2023-04-21T13:18:29;20.67;;;6.80;;
7773;SDS011;3931;42.260;23.116;2023-04-21T13:20:55;20.30;;;5.57;;
7773;SDS011;3931;42.260;23.116;2023-04-21T13:23:21;12.70;;;6.10;;
7773;SDS011;3931;42.260;23.116;2023-04-21T13:25:47;16.77;;;7.40;;
7773;SDS011;3931;42.260;23.116;2023-04-21T13:28:14;9.60;;;3.60;;
7773;SDS011;3931;42.260;23.116;2023-04-21T13:30:41;6.83;;;4.00;;
7773;SDS011;3931;42.260;23.116;2023-04-21T13:33:06;16.53;;;4.37;;
7773;SDS011;3931;42.260;23.116;2023-04-21T13:35:33;9.73;;;3.10;;
7773;SDS011;3931;42.260;23.116;2023-04-21T13:37:59;15.93;;;6.83;;
7773;SDS011;3931;42.260;23.116;2023-04-21T13:40:24;16.80;;;4.13;;
7773;SDS011;3931;42.260;23.116;2023-04-21T13:42:50;17.17;;;3.90;;
7773;SDS011;3931;42.260;23.116;2023-04-21T13:45:16;12.20;;;3.43;;
7773;SDS011;3931;42.260;23.116;2023-04-21T13:47:42;24.00;;;4.23;;
7773;SDS011;3931;42.260;23.116;2023-04-21T13:50:08;16.63;;;6.80;;
7773;SDS011;3931;42.260;23.116;2023-04-21T13:52:34;10.33;;;4.17;;
7773;SDS011;3931;42.260;23.116;2023-04-21T13:55:00;8.70;;;3.83;;
7773;SDS011;3931;42.260;23.116;2023-04-21T13:57:26;27.17;;;9.70;;
7773;SDS011;3931;42.260;23.116;2023-04-21T13:59:52;30.80;;;8.53;;
7773;SDS011;3931;42.260;23.116;2023-04-21T14:02:18;26.73;;;4.40;;
7773;SDS011;3931;42.260;23.116;2023-04-21T14:04:45;10.60;;;3.73;;
7773;SDS011;3931;42.260;23.116;2023-04-21T14:07:11;13.13;;;4.20;;
7773;SDS011;3931;42.260;23.116;2023-04-21T14:09:39;12.23;;;4.07;;
7773;SDS011;3931;42.260;23.116;2023-04-21T14:12:05;17.23;;;4.20;;
7773;SDS011;3931;42.260;23.116;2023-04-21T14:14:31;36.73;;;5.10;;
7773;SDS011;3931;42.260;23.116;2023-04-21T14:16:56;15.67;;;4.80;;
7773;SDS011;3931;42.260;23.116;2023-04-21T14:19:22;11.97;;;5.43;;
7773;SDS011;3931;42.260;23.116;2023-04-21T14:21:48;14.10;;;4.40;;
7773;SDS011;3931;42.260;23.116;2023-04-21T14:24:14;9.77;;;4.57;;
7773;SDS011;3931;42.260;23.116;2023-04-21T14:26:40;60.30;;;5.80;;
7773;SDS011;3931;42.260;23.116;2023-04-21T14:29:06;26.27;;;5.20;;
7773;SDS011;3931;42.260;23.116;2023-04-21T14:31:32;47.87;;;5.53;;
7773;SDS011;3931;42.260;23.116;2023-04-21T14:33:57;14.10;;;6.60;;
7773;SDS011;3931;42.260;23.116;2023-04-21T14:36:23;15.67;;;4.13;;
7773;SDS011;3931;42.260;23.116;2023-04-21T14:38:49;26.23;;;12.53;;
7773;SDS011;3931;42.260;23.116;2023-04-21T14:41:15;10.30;;;4.23;;